createdAt,value
2023-04-13T00:01:15.871Z,76.87
2023-04-13T00:03:43.088Z,77.15
2023-04-13T00:06:11.236Z,75.81
2023-04-13T00:08:38.818Z,75.53
2023-04-13T00:11:07.731Z,74.80
2023-04-13T00:13:40.972Z,75.50
2023-04-13T00:16:10.952Z,76.04
2023-04-13T00:18:38.222Z,75.80
2023-04-13T00:21:05.961Z,76.77
2023-04-13T00:23:35.990Z,76.08
2023-04-13T00:26:03.132Z,76.14
2023-04-13T00:28:30.339Z,75.25
2023-04-13T00:30:57.662Z,76.74
2023-04-13T00:33:27.055Z,76.06
2023-04-13T00:35:54.105Z,76.01
2023-04-13T00:38:23.987Z,77.55
2023-04-13T00:40:51.063Z,76.58
2023-04-13T00:43:18.181Z,76.81
2023-04-13T00:45:45.388Z,76.78
2023-04-13T00:48:13.519Z,77.38
2023-04-13T00:50:42.445Z,76.71
2023-04-13T00:53:13.250Z,77.44
2023-04-13T00:55:42.700Z,77.58
2023-04-13T00:58:10.576Z,75.90
2023-04-13T01:00:42.730Z,76.55
2023-04-13T01:03:10.254Z,75.93
2023-04-13T01:05:54.049Z,76.59
2023-04-13T01:09:08.839Z,75.78
2023-04-13T01:12:08.266Z,77.19
2023-04-13T01:14:49.233Z,75.79
2023-04-13T01:17:23.940Z,74.86
2023-04-13T01:20:11.995Z,75.14
2023-04-13T01:23:01.412Z,74.09
2023-04-13T01:25:38.254Z,74.88
2023-04-13T01:28:13.538Z,75.25
2023-04-13T01:30:42.468Z,75.66
2023-04-13T01:33:11.771Z,74.60
2023-04-13T01:35:39.743Z,73.60
2023-04-13T01:38:08.659Z,74.28
2023-04-13T01:40:40.924Z,74.26
2023-04-13T01:43:08.766Z,74.54
2023-04-13T01:45:56.876Z,74.93
2023-04-13T01:48:49.399Z,74.95
2023-04-13T01:51:32.272Z,75.06
2023-04-13T01:54:17.864Z,75.14
2023-04-13T01:56:45.576Z,75.37
2023-04-13T01:59:13.162Z,74.17
2023-04-13T02:01:41.048Z,72.96
2023-04-13T02:04:08.379Z,72.58
2023-04-13T02:06:40.899Z,72.93
2023-04-13T02:09:08.289Z,72.45
2023-04-13T02:11:36.653Z,72.64
2023-04-13T02:14:04.823Z,72.54
2023-04-13T02:16:32.185Z,73.93
2023-04-13T02:19:00.065Z,72.91
2023-04-13T02:21:27.288Z,74.20
2023-04-13T02:23:54.490Z,74.03
2023-04-13T02:26:21.552Z,75.97
2023-04-13T02:28:51.254Z,73.26
2023-04-13T02:31:20.030Z,73.03
2023-04-13T02:33:47.675Z,73.99
2023-04-13T02:36:17.539Z,73.40
2023-04-13T02:38:45.314Z,72.77
2023-04-13T02:41:12.566Z,72.81
2023-04-13T02:43:39.707Z,72.19
2023-04-13T02:46:07.222Z,71.23
2023-04-13T02:48:34.316Z,71.42
2023-04-13T02:51:02.334Z,71.11
2023-04-13T02:53:29.450Z,71.29
2023-04-13T02:55:56.651Z,71.40
2023-04-13T02:58:24.030Z,72.67
2023-04-13T03:00:51.353Z,71.82
2023-04-13T03:03:19.081Z,72.19
2023-04-13T03:05:47.179Z,72.85
2023-04-13T03:08:14.447Z,74.09
2023-04-13T03:10:41.549Z,72.87
2023-04-13T03:13:08.761Z,72.03
2023-04-13T03:15:37.334Z,74.11
2023-04-13T03:18:04.554Z,73.27
2023-04-13T03:20:31.830Z,75.56
2023-04-13T03:22:59.909Z,74.03
2023-04-13T03:25:28.326Z,73.55
2023-04-13T03:27:56.791Z,72.20
2023-04-13T03:30:24.018Z,73.45
2023-04-13T03:32:52.313Z,72.21
2023-04-13T03:35:19.462Z,72.28
2023-04-13T03:37:46.630Z,72.00
2023-04-13T03:40:14.277Z,72.36
2023-04-13T03:42:41.456Z,71.60
2023-04-13T03:45:10.525Z,72.10
2023-04-13T03:47:38.972Z,72.18
2023-04-13T03:50:10.082Z,72.11
2023-04-13T03:52:37.228Z,72.99
2023-04-13T03:55:04.941Z,72.63
2023-04-13T03:57:32.108Z,71.74
2023-04-13T03:59:59.204Z,70.94
2023-04-13T04:02:26.482Z,71.80
2023-04-13T04:04:53.769Z,71.91
2023-04-13T04:07:23.268Z,72.31
2023-04-13T04:10:18.057Z,72.01
2023-04-13T04:12:45.701Z,72.55
2023-04-13T04:15:12.946Z,73.47
2023-04-13T04:17:40.215Z,73.14
2023-04-13T04:20:08.748Z,72.07
2023-04-13T04:22:36.553Z,71.37
2023-04-13T04:25:04.489Z,72.27
2023-04-13T04:27:37.801Z,71.82
2023-04-13T04:30:06.818Z,71.72
2023-04-13T04:32:34.159Z,72.00
2023-04-13T04:35:04.029Z,71.45
2023-04-13T04:37:37.405Z,71.42
2023-04-13T04:40:09.657Z,71.30
2023-04-13T04:42:39.653Z,71.49
2023-04-13T04:45:08.277Z,71.44
2023-04-13T04:47:42.018Z,70.88
2023-04-13T04:50:14.372Z,70.24
2023-04-13T04:52:42.180Z,70.12
2023-04-13T04:55:10.184Z,70.80
2023-04-13T04:57:37.814Z,71.65
2023-04-13T05:00:15.411Z,72.19
2023-04-13T05:02:44.235Z,71.34
2023-04-13T05:05:12.075Z,70.68
2023-04-13T05:07:39.387Z,71.50
2023-04-13T05:10:12.814Z,70.78
2023-04-13T05:12:39.918Z,72.37
2023-04-13T05:15:08.985Z,71.75
2023-04-13T05:17:36.503Z,73.92
2023-04-13T05:20:07.852Z,73.79
2023-04-13T05:22:35.099Z,74.57
2023-04-13T05:25:02.465Z,74.38
2023-04-13T05:27:29.641Z,73.02
2023-04-13T05:29:57.529Z,72.50
2023-04-13T05:32:24.669Z,73.51
2023-04-13T05:34:51.726Z,73.19
2023-04-13T05:37:21.403Z,72.39
2023-04-13T05:39:48.513Z,71.97
2023-04-13T05:42:16.403Z,72.11
2023-04-13T05:44:43.485Z,73.41
2023-04-13T05:47:10.556Z,72.57
2023-04-13T05:49:37.676Z,72.84
2023-04-13T05:52:07.758Z,72.08
2023-04-13T05:54:36.348Z,70.26
2023-04-13T05:57:03.736Z,71.45
2023-04-13T05:59:31.106Z,73.09
2023-04-13T06:02:00.100Z,73.40
2023-04-13T06:04:27.633Z,71.36
2023-04-13T06:06:55.893Z,72.90
2023-04-13T06:09:27.240Z,72.01
2023-04-13T06:11:54.470Z,71.60
2023-04-13T06:14:22.295Z,71.27
2023-04-13T06:16:49.376Z,70.79
2023-04-13T06:19:17.358Z,71.77
2023-04-13T06:21:44.590Z,71.33
2023-04-13T06:24:11.711Z,69.62
2023-04-13T06:26:39.267Z,69.74
2023-04-13T06:29:06.463Z,69.20
2023-04-13T06:31:33.762Z,69.43
2023-04-13T06:34:02.464Z,69.43
2023-04-13T06:36:29.732Z,68.25
2023-04-13T06:38:57.145Z,70.25
2023-04-13T06:41:24.587Z,69.93
2023-04-13T06:43:52.093Z,69.21
2023-04-13T06:46:20.032Z,70.51
2023-04-13T06:48:49.146Z,69.62
2023-04-13T06:51:16.486Z,70.05
2023-04-13T06:53:43.519Z,69.20
2023-04-13T06:56:13.169Z,70.10
2023-04-13T06:58:42.905Z,70.17
2023-04-13T07:01:12.457Z,69.17
2023-04-13T07:03:42.183Z,69.15
2023-04-13T07:06:09.755Z,69.27
2023-04-13T07:08:36.871Z,66.70
2023-04-13T07:11:03.996Z,67.32
2023-04-13T07:13:31.036Z,68.21
2023-04-13T07:15:58.079Z,67.57
2023-04-13T07:18:26.375Z,67.06
2023-04-13T07:20:53.445Z,66.36
2023-04-13T07:23:20.542Z,66.40
2023-04-13T07:25:47.619Z,63.97
2023-04-13T07:28:14.727Z,64.85
2023-04-13T07:30:45.786Z,64.72
2023-04-13T07:33:13.297Z,63.87
2023-04-13T07:35:40.507Z,64.67
2023-04-13T07:38:07.923Z,64.19
2023-04-13T07:40:38.135Z,63.21
2023-04-13T07:43:05.237Z,61.63
2023-04-13T07:45:32.738Z,61.93
2023-04-13T07:47:59.872Z,61.27
2023-04-13T07:50:27.441Z,61.78
2023-04-13T07:52:57.130Z,60.35
2023-04-13T07:55:27.589Z,61.16
2023-04-13T07:57:55.509Z,60.12
2023-04-13T08:00:22.997Z,59.66
2023-04-13T08:02:50.286Z,57.85
2023-04-13T08:05:17.961Z,58.62
2023-04-13T08:07:46.816Z,57.23
2023-04-13T08:10:13.917Z,56.85
2023-04-13T08:12:43.308Z,56.83
2023-04-13T08:15:17.993Z,55.49
2023-04-13T08:17:45.332Z,56.24
2023-04-13T08:20:13.737Z,55.67
2023-04-13T08:22:40.897Z,55.40
2023-04-13T08:25:08.255Z,55.32
2023-04-13T08:27:35.367Z,55.28
2023-04-13T08:30:03.652Z,55.67
2023-04-13T08:32:30.958Z,54.35
2023-04-13T08:34:58.456Z,54.34
2023-04-13T08:37:28.084Z,53.36
2023-04-13T08:39:59.566Z,52.91
2023-04-13T08:42:28.965Z,53.13
2023-04-13T08:45:01.755Z,53.28
2023-04-13T08:47:29.368Z,53.46
2023-04-13T08:50:01.925Z,52.84
2023-04-13T08:52:29.606Z,51.87
2023-04-13T08:55:02.280Z,54.07
2023-04-13T08:57:31.157Z,53.27
2023-04-13T09:00:01.122Z,52.51
2023-04-13T09:02:37.576Z,51.66
2023-04-13T09:05:16.272Z,51.92
2023-04-13T09:07:53.598Z,51.98
2023-04-13T09:10:26.223Z,51.33
2023-04-13T09:12:53.469Z,51.89
2023-04-13T09:15:21.314Z,51.72
2023-04-13T09:17:50.580Z,51.45
2023-04-13T09:20:23.904Z,51.08
2023-04-13T09:22:53.985Z,50.27
2023-04-13T09:25:30.413Z,50.15
2023-04-13T09:27:59.246Z,49.06
2023-04-13T09:30:27.579Z,48.93
2023-04-13T09:33:10.739Z,48.56
2023-04-13T09:35:38.888Z,49.02
2023-04-13T09:38:07.310Z,47.86
2023-04-13T09:40:38.171Z,48.31
2023-04-13T09:47:14.637Z,48.92
2023-04-13T09:49:43.769Z,50.69
2023-04-13T09:52:24.822Z,48.65
2023-04-13T09:54:58.769Z,47.11
2023-04-13T09:57:32.887Z,46.55
2023-04-13T10:00:16.066Z,46.63
2023-04-13T10:02:45.836Z,45.26
2023-04-13T10:05:13.980Z,45.63
2023-04-13T10:07:48.763Z,45.39
2023-04-13T10:10:16.943Z,48.33
2023-04-13T10:12:53.400Z,46.98
2023-04-13T10:16:06.576Z,49.01
2023-04-13T10:19:01.857Z,46.89
2023-04-13T10:21:39.919Z,47.69
2023-04-13T10:24:14.358Z,47.71
2023-04-13T10:26:46.654Z,46.13
2023-04-13T10:29:14.821Z,46.34
2023-04-13T10:31:47.989Z,45.76
2023-04-13T10:34:31.847Z,44.97
2023-04-13T10:37:03.695Z,45.91
2023-04-13T10:39:34.465Z,45.45
2023-04-13T10:42:09.566Z,44.16
2023-04-13T10:44:51.401Z,44.26
2023-04-13T10:47:21.723Z,46.88
2023-04-13T10:49:51.254Z,45.78
2023-04-13T10:52:18.449Z,44.80
2023-04-13T10:54:50.258Z,44.88
2023-04-13T10:57:17.671Z,43.07
2023-04-13T10:59:58.797Z,43.00
2023-04-13T11:02:32.347Z,44.10
2023-04-13T11:05:00.898Z,45.54
2023-04-13T11:07:28.691Z,45.14
2023-04-13T11:12:31.707Z,44.86
2023-04-13T11:15:00.897Z,44.19
2023-04-13T11:17:28.249Z,44.55
2023-04-13T11:20:02.453Z,43.48
2023-04-13T11:22:36.377Z,44.30
2023-04-13T11:25:09.095Z,42.78
2023-04-13T11:27:37.703Z,42.75
2023-04-13T11:30:10.911Z,43.91
2023-04-13T11:32:43.516Z,42.89
2023-04-13T11:35:14.744Z,43.10
2023-04-13T11:37:48.649Z,42.35
2023-04-13T11:40:27.759Z,41.51
2023-04-13T11:42:58.262Z,42.53
2023-04-13T11:45:31.929Z,41.65
2023-04-13T11:47:59.764Z,42.61
2023-04-13T11:50:27.909Z,41.37
2023-04-13T11:52:56.831Z,41.86
2023-04-13T11:55:25.537Z,40.30
2023-04-13T11:57:55.636Z,41.55
2023-04-13T12:00:28.067Z,39.20
2023-04-13T12:05:42.988Z,40.86
2023-04-13T12:08:24.580Z,39.97
2023-04-13T12:14:06.448Z,41.15
2023-04-13T12:17:03.219Z,39.51
2023-04-13T12:19:26.654Z,39.59
2023-04-13T12:21:56.694Z,38.67
2023-04-13T12:24:40.222Z,39.33
2023-04-13T12:29:39.406Z,40.80
2023-04-13T12:32:14.887Z,42.92
2023-04-13T12:34:51.435Z,42.94
2023-04-13T12:37:18.531Z,39.93
2023-04-13T12:39:45.607Z,40.51
2023-04-13T12:42:48.250Z,38.43
2023-04-13T12:45:16.834Z,38.35
2023-04-13T12:47:47.136Z,38.91
2023-04-13T12:50:14.973Z,39.83
2023-04-13T12:52:43.456Z,38.97
2023-04-13T12:55:11.456Z,37.88
2023-04-13T12:57:39.908Z,38.43
2023-04-13T13:00:10.860Z,37.32
2023-04-13T13:02:42.131Z,37.60
2023-04-13T13:05:09.684Z,37.99
2023-04-13T13:07:37.047Z,39.49
2023-04-13T13:10:09.630Z,39.05
2023-04-13T13:12:45.656Z,38.96
2023-04-13T13:15:17.507Z,38.00
2023-04-13T13:17:45.410Z,36.57
2023-04-13T13:20:14.629Z,38.01
2023-04-13T13:22:43.462Z,37.47
2023-04-13T13:25:10.972Z,36.53
2023-04-13T13:28:10.373Z,37.39
2023-04-13T13:30:29.048Z,38.34
2023-04-13T13:32:56.584Z,36.20
2023-04-13T13:35:23.955Z,35.75
2023-04-13T13:37:51.348Z,37.70
2023-04-13T13:40:18.675Z,36.79
2023-04-13T13:42:52.093Z,35.17
2023-04-13T13:45:25.545Z,36.20
2023-04-13T13:47:55.253Z,33.73
2023-04-13T13:50:22.541Z,34.12
2023-04-13T13:53:02.166Z,34.61
2023-04-13T13:55:31.727Z,34.18
2023-04-13T13:57:59.301Z,34.58
2023-04-13T14:00:27.846Z,34.39
2023-04-13T14:02:55.105Z,34.75
2023-04-13T14:05:24.060Z,35.83
2023-04-13T14:07:51.701Z,33.71
2023-04-13T14:10:18.987Z,35.02
2023-04-13T14:12:49.587Z,34.66
2023-04-13T14:15:17.564Z,35.10
2023-04-13T14:17:52.832Z,35.19
2023-04-13T14:20:29.619Z,34.61
2023-04-13T14:22:58.140Z,35.03
2023-04-13T14:25:25.451Z,35.09
2023-04-13T14:27:53.052Z,34.92
2023-04-13T14:30:23.674Z,34.25
2023-04-13T14:32:52.260Z,32.27
2023-04-13T14:35:22.761Z,34.56
2023-04-13T14:37:50.064Z,33.30
2023-04-13T14:40:21.027Z,32.34
2023-04-13T14:42:50.895Z,33.71
2023-04-13T14:45:19.773Z,35.36
2023-04-13T14:47:47.188Z,35.74
2023-04-13T14:50:15.447Z,36.56
2023-04-13T14:52:46.746Z,35.49
2023-04-13T14:55:14.943Z,35.72
2023-04-13T14:57:42.221Z,36.13
2023-04-13T15:00:26.609Z,35.66
2023-04-13T15:02:54.806Z,37.12
2023-04-13T15:05:22.275Z,36.35
2023-04-13T15:07:50.727Z,35.64
2023-04-13T15:10:19.169Z,35.94
2023-04-13T15:12:48.076Z,36.23
2023-04-13T15:15:16.852Z,36.40
2023-04-13T15:17:44.182Z,36.21
2023-04-13T15:20:15.403Z,36.38
2023-04-13T15:22:42.459Z,36.51
2023-04-13T15:25:10.082Z,35.03
2023-04-13T15:27:37.235Z,35.19
2023-04-13T15:30:05.072Z,36.22
2023-04-13T15:32:35.170Z,36.35
2023-04-13T15:35:04.251Z,36.04
2023-04-13T15:37:31.427Z,37.65
2023-04-13T15:39:58.559Z,37.94
2023-04-13T15:42:26.186Z,37.85
2023-04-13T15:44:54.737Z,36.83
2023-04-13T15:47:22.702Z,36.35
2023-04-13T15:49:49.961Z,36.32
2023-04-13T15:52:17.202Z,36.39
2023-04-13T15:54:44.282Z,35.83
2023-04-13T15:57:11.583Z,35.44
2023-04-13T15:59:38.742Z,34.99
2023-04-13T16:02:06.189Z,35.92
2023-04-13T16:04:33.513Z,35.18
2023-04-13T16:07:12.756Z,34.83
2023-04-13T16:09:51.222Z,34.64
2023-04-13T16:12:18.597Z,36.25
2023-04-13T16:14:46.012Z,36.33
2023-04-13T16:17:16.987Z,36.95
2023-04-13T16:19:50.610Z,37.13
2023-04-13T16:22:17.899Z,36.70
2023-04-13T16:24:44.976Z,37.13
2023-04-13T16:27:12.087Z,36.19
2023-04-13T16:29:41.649Z,35.85
2023-04-13T16:32:08.967Z,35.44
2023-04-13T16:34:36.169Z,34.62
2023-04-13T16:37:03.388Z,34.39
2023-04-13T16:39:30.464Z,35.28
2023-04-13T16:41:57.541Z,35.75
2023-04-13T16:44:24.600Z,37.29
2023-04-13T16:46:51.713Z,37.92
2023-04-13T16:49:19.142Z,37.87
2023-04-13T16:51:46.266Z,38.19
2023-04-13T16:54:13.926Z,38.71
2023-04-13T16:56:41.192Z,38.82
2023-04-13T16:59:08.247Z,39.03
2023-04-13T17:01:37.153Z,38.80
2023-04-13T17:04:05.968Z,38.97
2023-04-13T17:06:37.981Z,39.12
2023-04-13T17:09:06.167Z,39.25
2023-04-13T17:11:33.424Z,38.83
2023-04-13T17:14:00.958Z,40.35
2023-04-13T17:16:29.419Z,39.71
2023-04-13T17:18:57.239Z,40.15
2023-04-13T17:21:24.641Z,41.12
2023-04-13T17:23:51.724Z,40.99
2023-04-13T17:26:18.990Z,40.68
2023-04-13T17:28:46.494Z,41.18
2023-04-13T17:31:14.393Z,42.01
2023-04-13T17:33:41.536Z,42.16
2023-04-13T17:36:08.673Z,42.26
2023-04-13T17:38:35.840Z,42.48
2023-04-13T17:41:03.029Z,43.13
2023-04-13T17:43:30.158Z,43.20
2023-04-13T17:45:57.298Z,43.12
2023-04-13T17:48:24.508Z,43.49
2023-04-13T17:50:51.621Z,44.56
2023-04-13T17:53:20.808Z,44.77
2023-04-13T17:55:47.904Z,44.75
2023-04-13T17:58:15.040Z,44.92
2023-04-13T18:00:42.256Z,44.98
2023-04-13T18:03:10.836Z,47.53
2023-04-13T18:05:44.575Z,50.86
2023-04-13T18:08:11.716Z,49.71
2023-04-13T18:10:38.777Z,47.10
2023-04-13T18:13:05.832Z,47.07
2023-04-13T18:15:32.937Z,49.96
2023-04-13T18:18:00.031Z,52.73
2023-04-13T18:20:27.089Z,56.81
2023-04-13T18:22:54.160Z,58.68
2023-04-13T18:25:21.364Z,60.62
2023-04-13T18:27:50.866Z,62.31
2023-04-13T18:30:19.073Z,62.88
2023-04-13T18:32:46.849Z,64.55
2023-04-13T18:35:14.134Z,66.39
2023-04-13T18:37:41.237Z,65.38
2023-04-13T18:40:10.371Z,61.92
2023-04-13T18:42:40.534Z,61.06
2023-04-13T18:45:08.484Z,62.49
2023-04-13T18:47:35.606Z,63.39
2023-04-13T18:50:02.915Z,65.03
2023-04-13T18:52:30.031Z,60.88
2023-04-13T18:54:57.092Z,57.95
2023-04-13T18:57:24.230Z,57.00
2023-04-13T18:59:51.599Z,55.09
2023-04-13T19:02:18.793Z,55.29
2023-04-13T19:04:46.040Z,59.25
2023-04-13T19:07:13.139Z,59.90
2023-04-13T19:09:40.436Z,60.70
2023-04-13T19:12:08.098Z,59.84
2023-04-13T19:14:35.213Z,58.13
2023-04-13T19:17:02.350Z,57.43
2023-04-13T19:19:29.517Z,57.37
2023-04-13T19:21:56.641Z,64.28
2023-04-13T19:24:24.305Z,65.21
2023-04-13T19:26:51.449Z,63.26
2023-04-13T19:29:20.918Z,61.94
2023-04-13T19:31:49.709Z,63.40
2023-04-13T19:34:16.878Z,62.17
2023-04-13T19:36:44.360Z,63.50
2023-04-13T19:39:11.485Z,62.02
2023-04-13T19:41:41.279Z,58.93
2023-04-13T19:44:08.971Z,58.88
2023-04-13T19:46:37.012Z,59.15
2023-04-13T19:49:04.264Z,58.24
2023-04-13T19:51:32.752Z,58.04
2023-04-13T19:54:01.911Z,56.89
2023-04-13T19:56:36.324Z,55.67
2023-04-13T19:59:07.005Z,57.96
2023-04-13T20:01:34.697Z,59.56
2023-04-13T20:04:05.235Z,62.25
2023-04-13T20:06:33.303Z,64.71
2023-04-13T20:09:14.354Z,65.35
2023-04-13T20:11:41.788Z,65.36
2023-04-13T20:14:11.447Z,62.24
2023-04-13T20:16:38.806Z,60.07
2023-04-13T20:19:06.917Z,58.57
2023-04-13T20:21:34.288Z,57.26
2023-04-13T20:24:03.097Z,57.93
2023-04-13T20:26:31.525Z,58.22
2023-04-13T20:29:02.249Z,61.52
2023-04-13T20:31:32.152Z,64.48
2023-04-13T20:33:59.518Z,67.82
2023-04-13T20:36:26.984Z,67.05
2023-04-13T20:39:00.126Z,65.59
2023-04-13T20:41:32.280Z,63.62
2023-04-13T20:44:00.485Z,61.74
2023-04-13T20:46:34.734Z,61.63
2023-04-13T20:49:05.619Z,63.74
2023-04-13T20:51:33.627Z,64.74
2023-04-13T20:54:02.434Z,63.36
2023-04-13T20:56:33.173Z,62.59
2023-04-13T20:59:00.847Z,60.62
2023-04-13T21:01:30.089Z,59.77
2023-04-13T21:03:57.323Z,59.95
2023-04-13T21:06:24.623Z,66.69
2023-04-13T21:08:52.835Z,69.64
2023-04-13T21:11:21.219Z,69.98
2023-04-13T21:13:48.344Z,69.31
2023-04-13T21:16:15.461Z,68.91
2023-04-13T21:18:42.646Z,68.66
2023-04-13T21:21:09.787Z,65.12
2023-04-13T21:23:37.457Z,63.56
2023-04-13T21:26:05.604Z,63.78
2023-04-13T21:28:32.788Z,66.56
2023-04-13T21:31:02.531Z,69.14
2023-04-13T21:33:29.605Z,69.46
2023-04-13T21:35:56.701Z,68.32
2023-04-13T21:38:24.005Z,66.51
2023-04-13T21:40:51.341Z,63.48
2023-04-13T21:43:18.499Z,62.38
2023-04-13T21:45:45.572Z,62.01
2023-04-13T21:48:12.872Z,61.84
2023-04-13T21:50:40.423Z,61.70
2023-04-13T21:53:07.491Z,65.52
2023-04-13T21:55:37.236Z,69.38
2023-04-13T21:58:04.304Z,71.21
2023-04-13T22:00:31.380Z,70.03
2023-04-13T22:02:58.506Z,69.67
2023-04-13T22:05:25.661Z,69.95
2023-04-13T22:07:52.718Z,70.14
2023-04-13T22:10:19.926Z,67.98
2023-04-13T22:12:47.117Z,68.28
2023-04-13T22:15:14.395Z,68.15
2023-04-13T22:17:41.735Z,70.13
2023-04-13T22:20:09.710Z,71.49
2023-04-13T22:22:36.988Z,72.91
2023-04-13T22:25:04.268Z,73.70
2023-04-13T22:27:31.520Z,72.87
2023-04-13T22:29:58.576Z,71.99
2023-04-13T22:32:28.598Z,70.81
2023-04-13T22:34:56.786Z,71.64
2023-04-13T22:37:23.922Z,70.61
2023-04-13T22:39:51.041Z,69.98
2023-04-13T22:42:20.348Z,66.92
2023-04-13T22:44:47.393Z,65.32
2023-04-13T22:47:14.461Z,63.70
2023-04-13T22:49:41.628Z,64.02
2023-04-13T22:52:08.778Z,66.56
2023-04-13T22:54:35.884Z,68.63
2023-04-13T22:57:05.591Z,64.88
2023-04-13T22:59:32.785Z,68.12
2023-04-13T23:02:01.568Z,66.59
2023-04-13T23:04:28.950Z,67.32
2023-04-13T23:06:56.127Z,71.58
2023-04-13T23:09:23.238Z,74.34
2023-04-13T23:11:50.492Z,71.62
2023-04-13T23:14:24.502Z,71.04
2023-04-13T23:16:51.713Z,70.26
2023-04-13T23:19:19.497Z,71.94
2023-04-13T23:21:47.052Z,70.57
2023-04-13T23:24:14.126Z,68.40
2023-04-13T23:26:41.362Z,66.77
2023-04-13T23:29:08.484Z,65.89
2023-04-13T23:31:35.886Z,68.29
2023-04-13T23:34:02.942Z,69.14
2023-04-13T23:36:30.977Z,67.04
2023-04-13T23:38:58.217Z,65.14
2023-04-13T23:41:25.388Z,66.15
2023-04-13T23:43:53.387Z,65.14
2023-04-13T23:46:22.399Z,65.25
2023-04-13T23:48:49.593Z,64.13
2023-04-13T23:51:16.680Z,67.78
2023-04-13T23:53:46.297Z,68.44
2023-04-13T23:56:13.380Z,69.58
2023-04-13T23:58:40.554Z,71.34
